sensor_id;sensor_type;location;lat;lon;timestamp;temperature;humidity
61374;DHT22;47242;48.158;-1.586;2022-11-11T05:30:23;11.90;86.30
61374;DHT22;47242;48.158;-1.586;2022-11-11T05:32:50;11.80;86.40
61374;DHT22;47242;48.158;-1.586;2022-11-11T05:35:16;11.60;87.10
61374;DHT22;47242;48.158;-1.586;2022-11-11T05:37:43;11.50;87.70
61374;DHT22;47242;48.158;-1.586;2022-11-11T05:40:09;11.50;87.30
61374;DHT22;47242;48.158;-1.586;2022-11-11T05:42:40;11.50;87.40
61374;DHT22;47242;48.158;-1.586;2022-11-11T05:45:07;11.30;87.20
61374;DHT22;47242;48.158;-1.586;2022-11-11T05:47:33;11.30;87.30
61374;DHT22;47242;48.158;-1.586;2022-11-11T05:49:58;11.30;87.60
61374;DHT22;47242;48.158;-1.586;2022-11-11T05:52:24;11.40;87.50
61374;DHT22;47242;48.158;-1.586;2022-11-11T05:57:35;11.60;87.00
61374;DHT22;47242;48.158;-1.586;2022-11-11T06:00:01;11.70;87.10
61374;DHT22;47242;48.158;-1.586;2022-11-11T06:02:27;11.70;86.70
61374;DHT22;47242;48.158;-1.586;2022-11-11T06:04:52;11.60;86.80
61374;DHT22;47242;48.158;-1.586;2022-11-11T06:07:18;11.50;86.30
61374;DHT22;47242;48.158;-1.586;2022-11-11T06:09:44;11.50;86.80
61374;DHT22;47242;48.158;-1.586;2022-11-11T06:12:27;11.60;87.00
61374;DHT22;47242;48.158;-1.586;2022-11-11T06:15:13;11.60;86.30
61374;DHT22;47242;48.158;-1.586;2022-11-11T06:18:02;11.40;86.90
61374;DHT22;47242;48.158;-1.586;2022-11-11T06:20:28;11.40;87.00
61374;DHT22;47242;48.158;-1.586;2022-11-11T06:22:54;11.50;86.90
61374;DHT22;47242;48.158;-1.586;2022-11-11T06:25:21;11.50;87.10
61374;DHT22;47242;48.158;-1.586;2022-11-11T06:28:05;11.60;86.90
61374;DHT22;47242;48.158;-1.586;2022-11-11T06:30:31;11.50;86.90
61374;DHT22;47242;48.158;-1.586;2022-11-11T06:32:56;11.60;86.90
61374;DHT22;47242;48.158;-1.586;2022-11-11T06:35:22;11.60;86.90
61374;DHT22;47242;48.158;-1.586;2022-11-11T06:37:48;11.60;86.30
61374;DHT22;47242;48.158;-1.586;2022-11-11T06:40:14;11.50;86.80
61374;DHT22;47242;48.158;-1.586;2022-11-11T06:42:39;11.50;87.30
61374;DHT22;47242;48.158;-1.586;2022-11-11T06:45:05;11.50;86.60
61374;DHT22;47242;48.158;-1.586;2022-11-11T06:47:31;11.50;87.20
61374;DHT22;47242;48.158;-1.586;2022-11-11T06:49:57;11.50;87.20
61374;DHT22;47242;48.158;-1.586;2022-11-11T06:52:30;11.60;87.30
61374;DHT22;47242;48.158;-1.586;2022-11-11T06:54:55;11.70;87.00
61374;DHT22;47242;48.158;-1.586;2022-11-11T06:57:24;11.70;86.70
61374;DHT22;47242;48.158;-1.586;2022-11-11T06:59:49;11.80;86.70
61374;DHT22;47242;48.158;-1.586;2022-11-11T07:02:15;11.80;86.50
61374;DHT22;47242;48.158;-1.586;2022-11-11T07:04:41;11.40;86.60
61374;DHT22;47242;48.158;-1.586;2022-11-11T07:07:06;11.30;87.50
61374;DHT22;47242;48.158;-1.586;2022-11-11T07:09:32;11.30;87.30
61374;DHT22;47242;48.158;-1.586;2022-11-11T07:11:57;11.40;87.80
61374;DHT22;47242;48.158;-1.586;2022-11-11T07:14:24;11.40;87.10
61374;DHT22;47242;48.158;-1.586;2022-11-11T07:16:49;11.30;87.30
61374;DHT22;47242;48.158;-1.586;2022-11-11T07:19:15;11.30;86.70
61374;DHT22;47242;48.158;-1.586;2022-11-11T07:21:41;11.30;87.10
61374;DHT22;47242;48.158;-1.586;2022-11-11T07:24:06;11.40;87.30
61374;DHT22;47242;48.158;-1.586;2022-11-11T07:26:32;11.50;86.80
61374;DHT22;47242;48.158;-1.586;2022-11-11T07:28:57;11.70;86.40
61374;DHT22;47242;48.158;-1.586;2022-11-11T07:31:23;11.60;86.50
61374;DHT22;47242;48.158;-1.586;2022-11-11T07:33:49;11.70;86.20
61374;DHT22;47242;48.158;-1.586;2022-11-11T07:36:14;11.60;86.10
61374;DHT22;47242;48.158;-1.586;2022-11-11T07:38:40;11.70;86.30
61374;DHT22;47242;48.158;-1.586;2022-11-11T07:41:05;11.80;86.00
61374;DHT22;47242;48.158;-1.586;2022-11-11T07:43:31;11.80;85.80
61374;DHT22;47242;48.158;-1.586;2022-11-11T07:45:57;11.60;85.80
61374;DHT22;47242;48.158;-1.586;2022-11-11T07:48:22;11.50;85.90
61374;DHT22;47242;48.158;-1.586;2022-11-11T07:50:51;11.30;86.80
61374;DHT22;47242;48.158;-1.586;2022-11-11T07:53:17;11.30;86.90
61374;DHT22;47242;48.158;-1.586;2022-11-11T07:55:44;11.20;87.30
61374;DHT22;47242;48.158;-1.586;2022-11-11T07:58:10;11.30;87.00
61374;DHT22;47242;48.158;-1.586;2022-11-11T08:00:36;11.40;87.00
61374;DHT22;47242;48.158;-1.586;2022-11-11T08:03:02;11.20;86.30
61374;DHT22;47242;48.158;-1.586;2022-11-11T08:05:27;11.00;86.60
61374;DHT22;47242;48.158;-1.586;2022-11-11T08:07:53;11.00;87.10
61374;DHT22;47242;48.158;-1.586;2022-11-11T08:10:18;11.20;86.90
61374;DHT22;47242;48.158;-1.586;2022-11-11T08:12:44;11.10;86.80
61374;DHT22;47242;48.158;-1.586;2022-11-11T08:15:28;11.20;86.90
61374;DHT22;47242;48.158;-1.586;2022-11-11T08:17:54;11.20;86.40
61374;DHT22;47242;48.158;-1.586;2022-11-11T08:20:20;11.20;86.30
61374;DHT22;47242;48.158;-1.586;2022-11-11T08:22:45;11.30;86.30
61374;DHT22;47242;48.158;-1.586;2022-11-11T08:25:12;11.30;85.20
61374;DHT22;47242;48.158;-1.586;2022-11-11T08:27:40;10.90;85.50
61374;DHT22;47242;48.158;-1.586;2022-11-11T08:30:07;10.80;86.50
61374;DHT22;47242;48.158;-1.586;2022-11-11T08:32:33;10.80;86.50
61374;DHT22;47242;48.158;-1.586;2022-11-11T08:34:59;10.80;86.00
61374;DHT22;47242;48.158;-1.586;2022-11-11T08:37:25;10.90;86.40
61374;DHT22;47242;48.158;-1.586;2022-11-11T08:39:50;10.90;85.70
61374;DHT22;47242;48.158;-1.586;2022-11-11T08:42:19;11.00;85.60
61374;DHT22;47242;48.158;-1.586;2022-11-11T08:44:45;11.00;85.60
61374;DHT22;47242;48.158;-1.586;2022-11-11T08:47:11;11.00;85.40
61374;DHT22;47242;48.158;-1.586;2022-11-11T08:49:36;11.20;85.40
61374;DHT22;47242;48.158;-1.586;2022-11-11T08:52:02;11.20;84.90
61374;DHT22;47242;48.158;-1.586;2022-11-11T08:54:28;11.30;85.20
61374;DHT22;47242;48.158;-1.586;2022-11-11T08:56:54;11.20;84.90
61374;DHT22;47242;48.158;-1.586;2022-11-11T08:59:20;11.10;84.90
61374;DHT22;47242;48.158;-1.586;2022-11-11T09:01:46;11.00;85.10
61374;DHT22;47242;48.158;-1.586;2022-11-11T09:04:11;10.90;85.40
61374;DHT22;47242;48.158;-1.586;2022-11-11T09:06:37;10.80;86.30
61374;DHT22;47242;48.158;-1.586;2022-11-11T09:09:05;10.80;86.20
61374;DHT22;47242;48.158;-1.586;2022-11-11T09:11:31;11.00;86.00
61374;DHT22;47242;48.158;-1.586;2022-11-11T09:14:01;11.00;85.50
61374;DHT22;47242;48.158;-1.586;2022-11-11T09:16:26;11.00;85.50
61374;DHT22;47242;48.158;-1.586;2022-11-11T09:18:52;11.00;84.80
61374;DHT22;47242;48.158;-1.586;2022-11-11T09:21:17;11.00;85.00
61374;DHT22;47242;48.158;-1.586;2022-11-11T09:23:43;10.90;85.60
61374;DHT22;47242;48.158;-1.586;2022-11-11T09:26:09;10.90;85.30
61374;DHT22;47242;48.158;-1.586;2022-11-11T09:28:35;10.80;85.40
61374;DHT22;47242;48.158;-1.586;2022-11-11T09:31:00;10.90;86.00
61374;DHT22;47242;48.158;-1.586;2022-11-11T09:33:26;11.00;85.70
61374;DHT22;47242;48.158;-1.586;2022-11-11T09:35:52;11.10;85.50
61374;DHT22;47242;48.158;-1.586;2022-11-11T09:38:18;11.00;85.60
61374;DHT22;47242;48.158;-1.586;2022-11-11T09:40:51;11.10;85.30
61374;DHT22;47242;48.158;-1.586;2022-11-11T09:43:35;11.20;85.30
61374;DHT22;47242;48.158;-1.586;2022-11-11T09:49:02;11.30;84.00
61374;DHT22;47242;48.158;-1.586;2022-11-11T09:51:57;11.20;84.60
61374;DHT22;47242;48.158;-1.586;2022-11-11T09:54:33;11.20;84.30
61374;DHT22;47242;48.158;-1.586;2022-11-11T09:57:02;11.20;83.90
61374;DHT22;47242;48.158;-1.586;2022-11-11T09:59:44;11.10;84.50
61374;DHT22;47242;48.158;-1.586;2022-11-11T10:02:38;11.00;84.50
61374;DHT22;47242;48.158;-1.586;2022-11-11T10:05:25;11.00;85.10
61374;DHT22;47242;48.158;-1.586;2022-11-11T10:08:14;11.00;84.20
61374;DHT22;47242;48.158;-1.586;2022-11-11T10:10:45;10.80;84.70
61374;DHT22;47242;48.158;-1.586;2022-11-11T10:18:32;11.10;85.00
61374;DHT22;47242;48.158;-1.586;2022-11-11T10:21:04;11.20;84.90
61374;DHT22;47242;48.158;-1.586;2022-11-11T10:23:34;11.00;85.20
61374;DHT22;47242;48.158;-1.586;2022-11-11T10:27:06;11.10;85.00
61374;DHT22;47242;48.158;-1.586;2022-11-11T10:28:59;11.10;85.20
61374;DHT22;47242;48.158;-1.586;2022-11-11T10:31:27;11.20;84.70
61374;DHT22;47242;48.158;-1.586;2022-11-11T10:34:08;11.30;84.40
61374;DHT22;47242;48.158;-1.586;2022-11-11T10:36:41;11.50;84.50
61374;DHT22;47242;48.158;-1.586;2022-11-11T10:39:12;11.40;83.70
61374;DHT22;47242;48.158;-1.586;2022-11-11T10:41:46;11.20;83.80
61374;DHT22;47242;48.158;-1.586;2022-11-11T10:44:25;11.30;84.30
61374;DHT22;47242;48.158;-1.586;2022-11-11T10:47:04;11.30;84.40
61374;DHT22;47242;48.158;-1.586;2022-11-11T10:49:39;11.40;84.50
61374;DHT22;47242;48.158;-1.586;2022-11-11T10:52:21;11.30;84.50
61374;DHT22;47242;48.158;-1.586;2022-11-11T10:59:58;11.50;84.80
61374;DHT22;47242;48.158;-1.586;2022-11-11T11:02:30;11.50;84.20
61374;DHT22;47242;48.158;-1.586;2022-11-11T11:05:26;11.60;83.90
61374;DHT22;47242;48.158;-1.586;2022-11-11T11:07:58;11.60;83.80
61374;DHT22;47242;48.158;-1.586;2022-11-11T11:10:33;11.70;83.50
61374;DHT22;47242;48.158;-1.586;2022-11-11T11:16:07;11.80;83.00
61374;DHT22;47242;48.158;-1.586;2022-11-11T11:18:33;11.90;83.00
61374;DHT22;47242;48.158;-1.586;2022-11-11T11:21:02;11.90;82.30
61374;DHT22;47242;48.158;-1.586;2022-11-11T11:23:39;11.90;82.70
61374;DHT22;47242;48.158;-1.586;2022-11-11T11:26:08;11.80;82.50
61374;DHT22;47242;48.158;-1.586;2022-11-11T11:28:34;11.80;82.20
61374;DHT22;47242;48.158;-1.586;2022-11-11T11:31:03;11.80;81.90
61374;DHT22;47242;48.158;-1.586;2022-11-11T11:36:18;11.80;82.80
61374;DHT22;47242;48.158;-1.586;2022-11-11T11:38:47;12.00;82.70
61374;DHT22;47242;48.158;-1.586;2022-11-11T11:41:42;12.00;82.50
61374;DHT22;47242;48.158;-1.586;2022-11-11T11:46:54;12.20;82.40
61374;DHT22;47242;48.158;-1.586;2022-11-11T11:55:21;11.80;83.30
61374;DHT22;47242;48.158;-1.586;2022-11-11T11:57:51;11.80;83.50
61374;DHT22;47242;48.158;-1.586;2022-11-11T12:00:30;11.90;82.90
61374;DHT22;47242;48.158;-1.586;2022-11-11T12:05:39;11.80;83.00
61374;DHT22;47242;48.158;-1.586;2022-11-11T12:11:14;11.70;84.00
61374;DHT22;47242;48.158;-1.586;2022-11-11T12:19:38;11.80;83.10
61374;DHT22;47242;48.158;-1.586;2022-11-11T12:22:23;11.80;83.20
61374;DHT22;47242;48.158;-1.586;2022-11-11T12:25:02;11.90;83.40
61374;DHT22;47242;48.158;-1.586;2022-11-11T12:30:11;11.80;83.10
61374;DHT22;47242;48.158;-1.586;2022-11-11T12:35:22;11.80;83.60
61374;DHT22;47242;48.158;-1.586;2022-11-11T12:43:46;12.00;83.10
61374;DHT22;47242;48.158;-1.586;2022-11-11T12:52:05;12.20;82.50
61374;DHT22;47242;48.158;-1.586;2022-11-11T13:00:22;12.50;82.30
61374;DHT22;47242;48.158;-1.586;2022-11-11T13:14:09;12.70;81.20
61374;DHT22;47242;48.158;-1.586;2022-11-11T13:16:26;12.70;81.50
61374;DHT22;47242;48.158;-1.586;2022-11-11T13:19:18;12.50;81.90
61374;DHT22;47242;48.158;-1.586;2022-11-11T13:22:05;12.40;81.80
61374;DHT22;47242;48.158;-1.586;2022-11-11T13:24:34;12.40;82.10
61374;DHT22;47242;48.158;-1.586;2022-11-11T13:27:13;12.30;81.60
61374;DHT22;47242;48.158;-1.586;2022-11-11T13:32:54;12.20;82.50
61374;DHT22;47242;48.158;-1.586;2022-11-11T13:35:45;12.20;81.70
61374;DHT22;47242;48.158;-1.586;2022-11-11T13:38:25;12.20;82.30
61374;DHT22;47242;48.158;-1.586;2022-11-11T13:40:54;12.20;82.20
61374;DHT22;47242;48.158;-1.586;2022-11-11T13:43:47;12.30;82.30
61374;DHT22;47242;48.158;-1.586;2022-11-11T13:46:39;12.40;82.00
61374;DHT22;47242;48.158;-1.586;2022-11-11T13:49:31;12.40;82.00
61374;DHT22;47242;48.158;-1.586;2022-11-11T13:52:00;12.40;81.30
61374;DHT22;47242;48.158;-1.586;2022-11-11T13:54:34;12.50;81.90
61374;DHT22;47242;48.158;-1.586;2022-11-11T13:57:20;12.50;81.60
61374;DHT22;47242;48.158;-1.586;2022-11-11T14:00:27;12.60;81.30
61374;DHT22;47242;48.158;-1.586;2022-11-11T14:05:43;12.50;81.20
61374;DHT22;47242;48.158;-1.586;2022-11-11T14:08:09;12.30;81.10
61374;DHT22;47242;48.158;-1.586;2022-11-11T14:15:51;12.30;81.50
61374;DHT22;47242;48.158;-1.586;2022-11-11T14:20:51;12.20;81.80
61374;DHT22;47242;48.158;-1.586;2022-11-11T14:25:47;12.30;81.90
61374;DHT22;47242;48.158;-1.586;2022-11-11T14:30:44;12.50;81.40
61374;DHT22;47242;48.158;-1.586;2022-11-11T14:36:20;12.80;80.90
61374;DHT22;47242;48.158;-1.586;2022-11-11T14:39:34;12.80;80.90
61374;DHT22;47242;48.158;-1.586;2022-11-11T14:42:06;12.80;81.00
61374;DHT22;47242;48.158;-1.586;2022-11-11T14:44:50;12.70;81.20
61374;DHT22;47242;48.158;-1.586;2022-11-11T14:49:45;12.70;80.90
61374;DHT22;47242;48.158;-1.586;2022-11-11T15:00:03;12.60;80.60
61374;DHT22;47242;48.158;-1.586;2022-11-11T15:02:33;12.60;81.50
61374;DHT22;47242;48.158;-1.586;2022-11-11T15:05:01;12.70;81.50
61374;DHT22;47242;48.158;-1.586;2022-11-11T15:26:50;12.50;81.60
61374;DHT22;47242;48.158;-1.586;2022-11-11T15:29:44;12.40;81.60
61374;DHT22;47242;48.158;-1.586;2022-11-11T15:35:18;12.30;82.10
61374;DHT22;47242;48.158;-1.586;2022-11-11T15:37:30;12.20;82.30
61374;DHT22;47242;48.158;-1.586;2022-11-11T15:39:56;12.20;82.80
61374;DHT22;47242;48.158;-1.586;2022-11-11T15:55:22;12.30;82.50
61374;DHT22;47242;48.158;-1.586;2022-11-11T15:57:48;12.50;82.00
61374;DHT22;47242;48.158;-1.586;2022-11-11T16:02:50;12.60;82.10
61374;DHT22;47242;48.158;-1.586;2022-11-11T16:05:23;12.40;82.10
61374;DHT22;47242;48.158;-1.586;2022-11-11T16:07:53;12.20;82.30
61374;DHT22;47242;48.158;-1.586;2022-11-11T16:10:34;12.00;82.50
61374;DHT22;47242;48.158;-1.586;2022-11-11T16:15:39;12.00;83.10
61374;DHT22;47242;48.158;-1.586;2022-11-11T16:18:33;12.10;83.00
61374;DHT22;47242;48.158;-1.586;2022-11-11T16:21:13;12.10;82.70
61374;DHT22;47242;48.158;-1.586;2022-11-11T16:23:41;12.20;82.80
61374;DHT22;47242;48.158;-1.586;2022-11-11T16:26:07;12.30;82.60
61374;DHT22;47242;48.158;-1.586;2022-11-11T16:28:47;12.40;82.40
61374;DHT22;47242;48.158;-1.586;2022-11-11T16:33:59;12.30;82.20
61374;DHT22;47242;48.158;-1.586;2022-11-11T16:36:25;12.30;82.50
61374;DHT22;47242;48.158;-1.586;2022-11-11T16:38:50;12.30;82.60
61374;DHT22;47242;48.158;-1.586;2022-11-11T16:41:25;12.20;82.50
61374;DHT22;47242;48.158;-1.586;2022-11-11T16:43:54;12.20;83.10
61374;DHT22;47242;48.158;-1.586;2022-11-11T16:51:46;11.90;83.40
61374;DHT22;47242;48.158;-1.586;2022-11-11T16:54:24;11.90;83.70
61374;DHT22;47242;48.158;-1.586;2022-11-11T16:56:54;11.90;83.90
61374;DHT22;47242;48.158;-1.586;2022-11-11T17:01:51;11.90;83.70
61374;DHT22;47242;48.158;-1.586;2022-11-11T17:04:16;11.90;83.80
61374;DHT22;47242;48.158;-1.586;2022-11-11T17:06:47;11.80;83.80
61374;DHT22;47242;48.158;-1.586;2022-11-11T17:09:40;11.90;84.10
61374;DHT22;47242;48.158;-1.586;2022-11-11T17:12:07;11.90;84.10
61374;DHT22;47242;48.158;-1.586;2022-11-11T17:14:35;12.00;83.80
61374;DHT22;47242;48.158;-1.586;2022-11-11T17:17:03;11.90;84.10
61374;DHT22;47242;48.158;-1.586;2022-11-11T17:19:31;12.00;84.10
61374;DHT22;47242;48.158;-1.586;2022-11-11T17:22:08;12.20;84.00
61374;DHT22;47242;48.158;-1.586;2022-11-11T17:24:34;12.20;83.50
61374;DHT22;47242;48.158;-1.586;2022-11-11T17:26:59;12.30;83.40
61374;DHT22;47242;48.158;-1.586;2022-11-11T17:29:25;12.30;83.30
61374;DHT22;47242;48.158;-1.586;2022-11-11T17:31:51;12.30;83.30
61374;DHT22;47242;48.158;-1.586;2022-11-11T17:34:19;12.30;83.20
61374;DHT22;47242;48.158;-1.586;2022-11-11T17:36:44;12.30;83.00
61374;DHT22;47242;48.158;-1.586;2022-11-11T17:39:10;12.30;83.00
61374;DHT22;47242;48.158;-1.586;2022-11-11T17:41:36;12.30;83.30
61374;DHT22;47242;48.158;-1.586;2022-11-11T17:44:01;12.30;83.30
61374;DHT22;47242;48.158;-1.586;2022-11-11T17:46:27;12.30;83.20
61374;DHT22;47242;48.158;-1.586;2022-11-11T17:48:54;12.30;83.20
61374;DHT22;47242;48.158;-1.586;2022-11-11T17:51:22;12.30;83.20
61374;DHT22;47242;48.158;-1.586;2022-11-11T17:53:49;12.30;83.10
61374;DHT22;47242;48.158;-1.586;2022-11-11T17:56:15;12.30;83.40
61374;DHT22;47242;48.158;-1.586;2022-11-11T17:58:41;12.30;83.20
61374;DHT22;47242;48.158;-1.586;2022-11-11T18:01:08;12.30;83.30
61374;DHT22;47242;48.158;-1.586;2022-11-11T18:03:33;12.30;83.20
61374;DHT22;47242;48.158;-1.586;2022-11-11T18:05:59;12.30;83.20
61374;DHT22;47242;48.158;-1.586;2022-11-11T18:08:28;12.30;83.20
61374;DHT22;47242;48.158;-1.586;2022-11-11T18:10:58;12.30;83.10
61374;DHT22;47242;48.158;-1.586;2022-11-11T18:13:25;12.30;83.10
61374;DHT22;47242;48.158;-1.586;2022-11-11T18:15:51;12.20;83.20
61374;DHT22;47242;48.158;-1.586;2022-11-11T18:18:16;12.20;83.20
61374;DHT22;47242;48.158;-1.586;2022-11-11T18:20:42;12.20;83.10
61374;DHT22;47242;48.158;-1.586;2022-11-11T18:23:08;12.20;83.00
61374;DHT22;47242;48.158;-1.586;2022-11-11T18:25:33;12.20;82.80
61374;DHT22;47242;48.158;-1.586;2022-11-11T18:27:59;12.10;83.10
61374;DHT22;47242;48.158;-1.586;2022-11-11T18:30:24;12.10;83.10
61374;DHT22;47242;48.158;-1.586;2022-11-11T18:32:50;12.00;82.80
61374;DHT22;47242;48.158;-1.586;2022-11-11T18:35:16;12.00;83.10
61374;DHT22;47242;48.158;-1.586;2022-11-11T18:37:43;12.00;83.00
61374;DHT22;47242;48.158;-1.586;2022-11-11T18:40:09;12.00;82.80
61374;DHT22;47242;48.158;-1.586;2022-11-11T18:42:35;12.00;82.70
61374;DHT22;47242;48.158;-1.586;2022-11-11T18:45:01;12.00;82.60
61374;DHT22;47242;48.158;-1.586;2022-11-11T18:47:26;12.00;82.60
61374;DHT22;47242;48.158;-1.586;2022-11-11T18:49:52;11.90;82.70
61374;DHT22;47242;48.158;-1.586;2022-11-11T18:52:18;11.90;82.40
61374;DHT22;47242;48.158;-1.586;2022-11-11T18:54:43;11.90;82.60
61374;DHT22;47242;48.158;-1.586;2022-11-11T18:57:09;11.80;82.60
61374;DHT22;47242;48.158;-1.586;2022-11-11T18:59:37;11.80;82.60
61374;DHT22;47242;48.158;-1.586;2022-11-11T19:02:03;11.80;82.80
61374;DHT22;47242;48.158;-1.586;2022-11-11T19:04:29;11.80;82.60
61374;DHT22;47242;48.158;-1.586;2022-11-11T19:06:54;11.80;82.60
61374;DHT22;47242;48.158;-1.586;2022-11-11T19:09:22;11.80;82.50
61374;DHT22;47242;48.158;-1.586;2022-11-11T19:11:49;11.80;82.30
61374;DHT22;47242;48.158;-1.586;2022-11-11T19:14:15;11.80;82.40
61374;DHT22;47242;48.158;-1.586;2022-11-11T19:16:41;11.80;82.30
61374;DHT22;47242;48.158;-1.586;2022-11-11T19:19:07;11.80;82.30
61374;DHT22;47242;48.158;-1.586;2022-11-11T19:21:35;11.80;82.30
61374;DHT22;47242;48.158;-1.586;2022-11-11T19:24:01;11.70;82.30
61374;DHT22;47242;48.158;-1.586;2022-11-11T19:26:28;11.70;82.00
61374;DHT22;47242;48.158;-1.586;2022-11-11T19:28:55;11.70;82.10
61374;DHT22;47242;48.158;-1.586;2022-11-11T19:31:23;11.70;82.10
61374;DHT22;47242;48.158;-1.586;2022-11-11T19:33:52;11.60;81.90
61374;DHT22;47242;48.158;-1.586;2022-11-11T19:36:20;11.60;81.90
61374;DHT22;47242;48.158;-1.586;2022-11-11T19:38:49;11.50;81.60
61374;DHT22;47242;48.158;-1.586;2022-11-11T19:41:17;11.60;82.00
61374;DHT22;47242;48.158;-1.586;2022-11-11T19:43:43;11.50;81.90
61374;DHT22;47242;48.158;-1.586;2022-11-11T19:46:12;11.50;81.70
61374;DHT22;47242;48.158;-1.586;2022-11-11T19:48:39;11.40;81.70
61374;DHT22;47242;48.158;-1.586;2022-11-11T19:51:07;11.50;81.90
61374;DHT22;47242;48.158;-1.586;2022-11-11T19:53:33;11.50;81.70
61374;DHT22;47242;48.158;-1.586;2022-11-11T19:56:22;11.40;81.60
61374;DHT22;47242;48.158;-1.586;2022-11-11T19:58:49;11.30;81.50
61374;DHT22;47242;48.158;-1.586;2022-11-11T20:01:20;11.30;81.60
61374;DHT22;47242;48.158;-1.586;2022-11-11T20:03:48;11.30;81.50
61374;DHT22;47242;48.158;-1.586;2022-11-11T20:06:40;11.30;81.60
61374;DHT22;47242;48.158;-1.586;2022-11-11T20:09:07;11.30;81.50
61374;DHT22;47242;48.158;-1.586;2022-11-11T20:11:34;11.30;81.50
61374;DHT22;47242;48.158;-1.586;2022-11-11T20:14:02;11.30;81.60
61374;DHT22;47242;48.158;-1.586;2022-11-11T20:16:28;11.20;81.40
61374;DHT22;47242;48.158;-1.586;2022-11-11T20:19:01;11.30;81.40
61374;DHT22;47242;48.158;-1.586;2022-11-11T20:21:28;11.20;81.40
61374;DHT22;47242;48.158;-1.586;2022-11-11T20:23:54;11.20;81.40
61374;DHT22;47242;48.158;-1.586;2022-11-11T20:26:20;11.20;81.60
61374;DHT22;47242;48.158;-1.586;2022-11-11T20:28:46;11.20;81.90
61374;DHT22;47242;48.158;-1.586;2022-11-11T20:31:16;11.20;81.70
61374;DHT22;47242;48.158;-1.586;2022-11-11T20:33:43;11.20;81.80
61374;DHT22;47242;48.158;-1.586;2022-11-11T20:36:12;11.10;82.00
61374;DHT22;47242;48.158;-1.586;2022-11-11T20:38:38;11.20;81.90
61374;DHT22;47242;48.158;-1.586;2022-11-11T20:41:06;11.10;81.80
61374;DHT22;47242;48.158;-1.586;2022-11-11T20:43:34;11.10;81.90
61374;DHT22;47242;48.158;-1.586;2022-11-11T20:46:05;11.20;82.10
61374;DHT22;47242;48.158;-1.586;2022-11-11T20:48:31;11.10;82.10
61374;DHT22;47242;48.158;-1.586;2022-11-11T20:53:27;11.10;82.20
61374;DHT22;47242;48.158;-1.586;2022-11-11T20:55:52;11.10;82.10
61374;DHT22;47242;48.158;-1.586;2022-11-11T20:58:18;11.10;82.40
61374;DHT22;47242;48.158;-1.586;2022-11-11T21:00:43;11.10;82.50
61374;DHT22;47242;48.158;-1.586;2022-11-11T21:03:09;11.00;82.50
61374;DHT22;47242;48.158;-1.586;2022-11-11T21:05:34;10.90;82.80
61374;DHT22;47242;48.158;-1.586;2022-11-11T21:08:00;10.90;82.90
61374;DHT22;47242;48.158;-1.586;2022-11-11T21:10:26;10.90;83.20
61374;DHT22;47242;48.158;-1.586;2022-11-11T21:12:51;10.90;83.10
61374;DHT22;47242;48.158;-1.586;2022-11-11T21:15:19;10.90;83.40
61374;DHT22;47242;48.158;-1.586;2022-11-11T21:17:44;10.90;83.30
61374;DHT22;47242;48.158;-1.586;2022-11-11T21:20:10;10.90;83.20
61374;DHT22;47242;48.158;-1.586;2022-11-11T21:22:35;10.80;83.30
61374;DHT22;47242;48.158;-1.586;2022-11-11T21:25:01;10.80;83.80
61374;DHT22;47242;48.158;-1.586;2022-11-11T21:27:27;10.70;84.00
61374;DHT22;47242;48.158;-1.586;2022-11-11T21:29:52;10.70;84.30
61374;DHT22;47242;48.158;-1.586;2022-11-11T21:32:18;10.70;84.30
61374;DHT22;47242;48.158;-1.586;2022-11-11T21:34:44;10.80;84.30
61374;DHT22;47242;48.158;-1.586;2022-11-11T21:37:09;10.80;84.30
61374;DHT22;47242;48.158;-1.586;2022-11-11T21:39:35;10.80;84.30
61374;DHT22;47242;48.158;-1.586;2022-11-11T21:42:00;10.80;84.30
61374;DHT22;47242;48.158;-1.586;2022-11-11T21:44:26;10.80;84.30
61374;DHT22;47242;48.158;-1.586;2022-11-11T21:46:52;10.80;84.60
61374;DHT22;47242;48.158;-1.586;2022-11-11T21:49:17;10.80;84.60
61374;DHT22;47242;48.158;-1.586;2022-11-11T21:51:43;10.80;84.30
61374;DHT22;47242;48.158;-1.586;2022-11-11T21:54:09;10.80;84.50
61374;DHT22;47242;48.158;-1.586;2022-11-11T21:56:37;10.80;84.90
61374;DHT22;47242;48.158;-1.586;2022-11-11T21:59:05;10.70;84.80
61374;DHT22;47242;48.158;-1.586;2022-11-11T22:01:36;10.80;84.50
61374;DHT22;47242;48.158;-1.586;2022-11-11T22:04:05;10.80;84.10
61374;DHT22;47242;48.158;-1.586;2022-11-11T22:06:31;10.80;84.50
61374;DHT22;47242;48.158;-1.586;2022-11-11T22:08:58;10.90;84.40
61374;DHT22;47242;48.158;-1.586;2022-11-11T22:11:27;11.00;84.10
61374;DHT22;47242;48.158;-1.586;2022-11-11T22:13:53;11.00;83.90
61374;DHT22;47242;48.158;-1.586;2022-11-11T22:16:23;11.00;83.70
61374;DHT22;47242;48.158;-1.586;2022-11-11T22:18:59;11.00;83.60
61374;DHT22;47242;48.158;-1.586;2022-11-11T22:21:27;11.00;83.70
61374;DHT22;47242;48.158;-1.586;2022-11-11T22:23:56;10.90;84.30
61374;DHT22;47242;48.158;-1.586;2022-11-11T22:26:24;10.80;84.50
61374;DHT22;47242;48.158;-1.586;2022-11-11T22:28:50;10.80;84.60
